sensor_id;sensor_type;location;lat;lon;timestamp;temperature;humidity
40758;DHT22;26462;47.384;19.218;2023-04-19T00:01:45;13.20;73.70
40758;DHT22;26462;47.384;19.218;2023-04-19T00:04:12;13.20;73.80
40758;DHT22;26462;47.384;19.218;2023-04-19T00:06:41;13.20;73.40
40758;DHT22;26462;47.384;19.218;2023-04-19T00:09:08;13.20;73.80
40758;DHT22;26462;47.384;19.218;2023-04-19T00:11:35;13.10;73.30
40758;DHT22;26462;47.384;19.218;2023-04-19T00:14:02;13.20;73.40
40758;DHT22;26462;47.384;19.218;2023-04-19T00:16:29;13.10;73.50
40758;DHT22;26462;47.384;19.218;2023-04-19T00:18:57;13.10;73.40
40758;DHT22;26462;47.384;19.218;2023-04-19T00:21:24;13.10;73.20
40758;DHT22;26462;47.384;19.218;2023-04-19T00:23:52;13.20;73.20
40758;DHT22;26462;47.384;19.218;2023-04-19T00:26:19;13.10;72.90
40758;DHT22;26462;47.384;19.218;2023-04-19T00:28:50;13.20;73.10
40758;DHT22;26462;47.384;19.218;2023-04-19T00:31:17;13.10;72.60
40758;DHT22;26462;47.384;19.218;2023-04-19T00:33:44;13.10;72.80
40758;DHT22;26462;47.384;19.218;2023-04-19T00:36:11;13.10;72.60
40758;DHT22;26462;47.384;19.218;2023-04-19T00:38:39;13.10;72.70
40758;DHT22;26462;47.384;19.218;2023-04-19T00:41:09;13.10;72.80
40758;DHT22;26462;47.384;19.218;2023-04-19T00:43:36;13.10;73.00
40758;DHT22;26462;47.384;19.218;2023-04-19T00:46:03;13.10;72.90
40758;DHT22;26462;47.384;19.218;2023-04-19T00:48:30;13.00;72.90
40758;DHT22;26462;47.384;19.218;2023-04-19T00:50:58;13.00;73.10
40758;DHT22;26462;47.384;19.218;2023-04-19T00:53:25;13.00;72.90
40758;DHT22;26462;47.384;19.218;2023-04-19T00:55:54;13.00;73.10
40758;DHT22;26462;47.384;19.218;2023-04-19T00:58:23;12.90;72.90
40758;DHT22;26462;47.384;19.218;2023-04-19T01:00:51;12.90;73.10
40758;DHT22;26462;47.384;19.218;2023-04-19T01:03:18;12.90;73.10
40758;DHT22;26462;47.384;19.218;2023-04-19T01:05:46;12.80;73.00
40758;DHT22;26462;47.384;19.218;2023-04-19T01:08:14;12.80;72.90
40758;DHT22;26462;47.384;19.218;2023-04-19T01:10:41;12.80;73.00
40758;DHT22;26462;47.384;19.218;2023-04-19T01:13:08;12.70;73.40
40758;DHT22;26462;47.384;19.218;2023-04-19T01:15:36;12.70;73.20
40758;DHT22;26462;47.384;19.218;2023-04-19T01:18:04;12.60;73.60
40758;DHT22;26462;47.384;19.218;2023-04-19T01:20:31;12.60;73.70
40758;DHT22;26462;47.384;19.218;2023-04-19T01:22:58;12.60;73.90
40758;DHT22;26462;47.384;19.218;2023-04-19T01:25:26;12.60;73.90
40758;DHT22;26462;47.384;19.218;2023-04-19T01:27:53;12.50;74.20
40758;DHT22;26462;47.384;19.218;2023-04-19T01:30:22;12.40;74.40
40758;DHT22;26462;47.384;19.218;2023-04-19T01:32:49;12.40;74.50
40758;DHT22;26462;47.384;19.218;2023-04-19T01:35:16;12.40;74.80
40758;DHT22;26462;47.384;19.218;2023-04-19T01:37:44;12.40;74.70
40758;DHT22;26462;47.384;19.218;2023-04-19T01:40:11;12.30;75.00
40758;DHT22;26462;47.384;19.218;2023-04-19T01:42:38;12.30;75.40
40758;DHT22;26462;47.384;19.218;2023-04-19T01:45:05;12.30;75.40
40758;DHT22;26462;47.384;19.218;2023-04-19T01:47:33;12.30;75.60
40758;DHT22;26462;47.384;19.218;2023-04-19T01:50:01;12.20;75.60
40758;DHT22;26462;47.384;19.218;2023-04-19T01:52:28;12.20;75.70
40758;DHT22;26462;47.384;19.218;2023-04-19T01:54:55;12.20;75.70
40758;DHT22;26462;47.384;19.218;2023-04-19T01:57:22;12.30;75.90
40758;DHT22;26462;47.384;19.218;2023-04-19T01:59:49;12.20;75.40
40758;DHT22;26462;47.384;19.218;2023-04-19T02:02:17;12.20;75.50
40758;DHT22;26462;47.384;19.218;2023-04-19T02:04:44;12.20;75.20
40758;DHT22;26462;47.384;19.218;2023-04-19T02:07:11;12.20;75.20
40758;DHT22;26462;47.384;19.218;2023-04-19T02:09:38;12.20;75.50
40758;DHT22;26462;47.384;19.218;2023-04-19T02:12:06;12.30;75.50
40758;DHT22;26462;47.384;19.218;2023-04-19T02:14:34;12.20;75.40
40758;DHT22;26462;47.384;19.218;2023-04-19T02:17:01;12.20;75.20
40758;DHT22;26462;47.384;19.218;2023-04-19T02:19:28;12.10;75.30
40758;DHT22;26462;47.384;19.218;2023-04-19T02:21:55;12.20;75.50
40758;DHT22;26462;47.384;19.218;2023-04-19T02:24:25;12.20;75.30
40758;DHT22;26462;47.384;19.218;2023-04-19T02:26:52;12.20;75.30
40758;DHT22;26462;47.384;19.218;2023-04-19T02:29:19;12.10;74.80
40758;DHT22;26462;47.384;19.218;2023-04-19T02:31:46;12.10;75.00
40758;DHT22;26462;47.384;19.218;2023-04-19T02:34:14;12.10;75.00
40758;DHT22;26462;47.384;19.218;2023-04-19T02:36:41;12.10;74.60
40758;DHT22;26462;47.384;19.218;2023-04-19T02:39:08;12.00;74.00
40758;DHT22;26462;47.384;19.218;2023-04-19T02:41:37;12.00;74.10
40758;DHT22;26462;47.384;19.218;2023-04-19T02:44:04;12.00;74.20
40758;DHT22;26462;47.384;19.218;2023-04-19T02:46:33;12.00;74.10
40758;DHT22;26462;47.384;19.218;2023-04-19T02:49:00;11.90;74.40
40758;DHT22;26462;47.384;19.218;2023-04-19T02:51:28;11.90;74.20
40758;DHT22;26462;47.384;19.218;2023-04-19T02:53:56;11.90;74.20
40758;DHT22;26462;47.384;19.218;2023-04-19T02:56:24;11.90;73.90
40758;DHT22;26462;47.384;19.218;2023-04-19T02:58:52;11.90;74.00
40758;DHT22;26462;47.384;19.218;2023-04-19T03:01:20;11.80;74.00
40758;DHT22;26462;47.384;19.218;2023-04-19T03:03:47;11.80;73.70
40758;DHT22;26462;47.384;19.218;2023-04-19T03:06:15;11.80;73.50
40758;DHT22;26462;47.384;19.218;2023-04-19T03:08:42;11.80;73.70
40758;DHT22;26462;47.384;19.218;2023-04-19T03:11:11;11.80;73.70
40758;DHT22;26462;47.384;19.218;2023-04-19T03:13:38;11.70;73.50
40758;DHT22;26462;47.384;19.218;2023-04-19T03:16:07;11.70;73.50
40758;DHT22;26462;47.384;19.218;2023-04-19T03:18:35;11.70;73.50
40758;DHT22;26462;47.384;19.218;2023-04-19T03:21:03;11.70;73.70
40758;DHT22;26462;47.384;19.218;2023-04-19T03:23:38;11.70;73.90
40758;DHT22;26462;47.384;19.218;2023-04-19T03:26:05;11.60;74.10
40758;DHT22;26462;47.384;19.218;2023-04-19T03:28:45;11.60;74.00
40758;DHT22;26462;47.384;19.218;2023-04-19T03:31:19;11.60;74.10
40758;DHT22;26462;47.384;19.218;2023-04-19T03:33:49;11.50;73.90
40758;DHT22;26462;47.384;19.218;2023-04-19T03:36:18;11.60;74.10
40758;DHT22;26462;47.384;19.218;2023-04-19T03:38:46;11.60;74.00
40758;DHT22;26462;47.384;19.218;2023-04-19T03:41:24;11.50;74.20
40758;DHT22;26462;47.384;19.218;2023-04-19T03:44:08;11.50;74.10
40758;DHT22;26462;47.384;19.218;2023-04-19T03:46:40;11.50;74.50
40758;DHT22;26462;47.384;19.218;2023-04-19T03:49:08;11.50;74.50
40758;DHT22;26462;47.384;19.218;2023-04-19T03:51:35;11.50;74.70
40758;DHT22;26462;47.384;19.218;2023-04-19T03:54:02;11.40;74.80
40758;DHT22;26462;47.384;19.218;2023-04-19T03:56:29;11.40;74.70
40758;DHT22;26462;47.384;19.218;2023-04-19T03:58:57;11.40;74.80
40758;DHT22;26462;47.384;19.218;2023-04-19T04:01:25;11.40;74.90
40758;DHT22;26462;47.384;19.218;2023-04-19T04:03:53;11.30;75.10
40758;DHT22;26462;47.384;19.218;2023-04-19T04:06:21;11.40;75.10
40758;DHT22;26462;47.384;19.218;2023-04-19T04:08:49;11.30;75.20
40758;DHT22;26462;47.384;19.218;2023-04-19T04:11:16;11.40;75.50
40758;DHT22;26462;47.384;19.218;2023-04-19T04:13:46;11.40;75.70
40758;DHT22;26462;47.384;19.218;2023-04-19T04:16:18;11.30;75.60
40758;DHT22;26462;47.384;19.218;2023-04-19T04:18:46;11.30;75.80
40758;DHT22;26462;47.384;19.218;2023-04-19T04:21:14;11.30;75.80
40758;DHT22;26462;47.384;19.218;2023-04-19T04:23:44;11.30;75.70
40758;DHT22;26462;47.384;19.218;2023-04-19T04:26:20;11.30;76.30
40758;DHT22;26462;47.384;19.218;2023-04-19T04:29:07;11.30;76.30
40758;DHT22;26462;47.384;19.218;2023-04-19T04:31:35;11.30;76.40
40758;DHT22;26462;47.384;19.218;2023-04-19T04:34:03;11.40;76.70
40758;DHT22;26462;47.384;19.218;2023-04-19T04:36:33;11.40;76.50
40758;DHT22;26462;47.384;19.218;2023-04-19T04:39:03;11.40;76.50
40758;DHT22;26462;47.384;19.218;2023-04-19T04:41:32;11.50;76.60
40758;DHT22;26462;47.384;19.218;2023-04-19T04:43:59;11.50;77.10
40758;DHT22;26462;47.384;19.218;2023-04-19T04:46:30;11.60;77.30
40758;DHT22;26462;47.384;19.218;2023-04-19T04:48:57;11.60;77.70
40758;DHT22;26462;47.384;19.218;2023-04-19T04:51:24;11.50;78.10
40758;DHT22;26462;47.384;19.218;2023-04-19T04:53:54;11.50;78.80
40758;DHT22;26462;47.384;19.218;2023-04-19T04:56:22;11.50;79.50
40758;DHT22;26462;47.384;19.218;2023-04-19T04:58:49;11.50;80.20
40758;DHT22;26462;47.384;19.218;2023-04-19T05:01:25;11.60;80.70
40758;DHT22;26462;47.384;19.218;2023-04-19T05:03:53;11.60;80.80
40758;DHT22;26462;47.384;19.218;2023-04-19T05:06:20;11.70;80.90
40758;DHT22;26462;47.384;19.218;2023-04-19T05:08:47;11.70;80.90
40758;DHT22;26462;47.384;19.218;2023-04-19T05:11:30;11.70;81.10
40758;DHT22;26462;47.384;19.218;2023-04-19T05:13:57;11.80;81.00
40758;DHT22;26462;47.384;19.218;2023-04-19T05:16:25;11.70;80.70
40758;DHT22;26462;47.384;19.218;2023-04-19T05:18:53;11.70;80.80
40758;DHT22;26462;47.384;19.218;2023-04-19T05:21:22;11.80;81.10
40758;DHT22;26462;47.384;19.218;2023-04-19T05:23:50;11.80;80.60
40758;DHT22;26462;47.384;19.218;2023-04-19T05:26:19;11.80;80.20
40758;DHT22;26462;47.384;19.218;2023-04-19T05:28:49;11.90;80.20
40758;DHT22;26462;47.384;19.218;2023-04-19T05:31:21;11.90;80.20
40758;DHT22;26462;47.384;19.218;2023-04-19T05:34:07;11.90;79.50
40758;DHT22;26462;47.384;19.218;2023-04-19T05:36:34;12.00;79.70
40758;DHT22;26462;47.384;19.218;2023-04-19T05:39:01;12.00;79.80
40758;DHT22;26462;47.384;19.218;2023-04-19T05:41:29;12.00;79.30
40758;DHT22;26462;47.384;19.218;2023-04-19T05:43:56;12.10;79.40
40758;DHT22;26462;47.384;19.218;2023-04-19T05:46:24;12.10;79.10
40758;DHT22;26462;47.384;19.218;2023-04-19T05:48:52;12.10;79.10
40758;DHT22;26462;47.384;19.218;2023-04-19T05:51:37;12.20;79.20
40758;DHT22;26462;47.384;19.218;2023-04-19T05:54:09;12.20;78.80
40758;DHT22;26462;47.384;19.218;2023-04-19T05:56:40;12.30;78.40
40758;DHT22;26462;47.384;19.218;2023-04-19T05:59:07;12.30;78.20
40758;DHT22;26462;47.384;19.218;2023-04-19T06:01:34;12.40;78.10
40758;DHT22;26462;47.384;19.218;2023-04-19T06:04:01;12.60;78.00
40758;DHT22;26462;47.384;19.218;2023-04-19T06:06:28;12.70;78.30
40758;DHT22;26462;47.384;19.218;2023-04-19T06:08:56;12.70;77.60
40758;DHT22;26462;47.384;19.218;2023-04-19T06:11:23;12.80;78.10
40758;DHT22;26462;47.384;19.218;2023-04-19T06:13:57;12.90;77.20
40758;DHT22;26462;47.384;19.218;2023-04-19T06:16:24;13.00;76.20
40758;DHT22;26462;47.384;19.218;2023-04-19T06:18:53;13.10;75.60
40758;DHT22;26462;47.384;19.218;2023-04-19T06:21:20;13.20;75.10
40758;DHT22;26462;47.384;19.218;2023-04-19T06:23:47;13.30;75.10
40758;DHT22;26462;47.384;19.218;2023-04-19T06:26:14;13.30;75.30
40758;DHT22;26462;47.384;19.218;2023-04-19T06:28:42;13.70;74.50
40758;DHT22;26462;47.384;19.218;2023-04-19T06:31:09;14.00;73.40
40758;DHT22;26462;47.384;19.218;2023-04-19T06:33:38;14.00;73.10
40758;DHT22;26462;47.384;19.218;2023-04-19T06:36:05;14.00;72.90
40758;DHT22;26462;47.384;19.218;2023-04-19T06:38:32;14.20;72.10
40758;DHT22;26462;47.384;19.218;2023-04-19T06:40:59;14.20;71.30
40758;DHT22;26462;47.384;19.218;2023-04-19T06:43:26;14.50;71.20
40758;DHT22;26462;47.384;19.218;2023-04-19T06:46:00;14.80;70.20
40758;DHT22;26462;47.384;19.218;2023-04-19T06:48:28;15.10;69.10
40758;DHT22;26462;47.384;19.218;2023-04-19T06:50:55;15.20;68.20
40758;DHT22;26462;47.384;19.218;2023-04-19T06:53:22;15.40;67.70
40758;DHT22;26462;47.384;19.218;2023-04-19T06:55:56;15.60;67.10
40758;DHT22;26462;47.384;19.218;2023-04-19T06:58:24;15.60;65.80
40758;DHT22;26462;47.384;19.218;2023-04-19T07:00:52;15.50;64.80
40758;DHT22;26462;47.384;19.218;2023-04-19T07:03:20;15.30;65.40
40758;DHT22;26462;47.384;19.218;2023-04-19T07:05:47;15.30;66.10
40758;DHT22;26462;47.384;19.218;2023-04-19T07:08:15;15.30;66.10
40758;DHT22;26462;47.384;19.218;2023-04-19T07:10:42;15.20;66.40
40758;DHT22;26462;47.384;19.218;2023-04-19T07:13:10;15.30;66.30
40758;DHT22;26462;47.384;19.218;2023-04-19T07:15:37;15.40;66.00
40758;DHT22;26462;47.384;19.218;2023-04-19T07:18:04;15.30;66.00
40758;DHT22;26462;47.384;19.218;2023-04-19T07:20:31;15.30;66.50
40758;DHT22;26462;47.384;19.218;2023-04-19T07:22:59;15.30;65.20
40758;DHT22;26462;47.384;19.218;2023-04-19T07:25:26;15.30;65.50
40758;DHT22;26462;47.384;19.218;2023-04-19T07:27:54;15.30;64.40
40758;DHT22;26462;47.384;19.218;2023-04-19T07:30:21;15.30;65.20
40758;DHT22;26462;47.384;19.218;2023-04-19T07:32:48;15.30;65.20
40758;DHT22;26462;47.384;19.218;2023-04-19T07:35:17;15.30;65.90
40758;DHT22;26462;47.384;19.218;2023-04-19T07:37:46;15.20;66.60
40758;DHT22;26462;47.384;19.218;2023-04-19T07:40:13;15.10;65.40
40758;DHT22;26462;47.384;19.218;2023-04-19T07:42:41;15.00;66.00
40758;DHT22;26462;47.384;19.218;2023-04-19T07:45:09;14.90;65.60
40758;DHT22;26462;47.384;19.218;2023-04-19T07:47:37;15.00;66.20
40758;DHT22;26462;47.384;19.218;2023-04-19T07:50:04;15.00;66.50
40758;DHT22;26462;47.384;19.218;2023-04-19T07:52:33;15.10;67.30
40758;DHT22;26462;47.384;19.218;2023-04-19T07:55:00;15.00;65.80
40758;DHT22;26462;47.384;19.218;2023-04-19T07:57:27;15.00;65.50
40758;DHT22;26462;47.384;19.218;2023-04-19T07:59:54;15.00;65.70
40758;DHT22;26462;47.384;19.218;2023-04-19T08:02:27;15.00;64.60
40758;DHT22;26462;47.384;19.218;2023-04-19T08:04:54;14.90;64.90
40758;DHT22;26462;47.384;19.218;2023-04-19T08:07:23;14.90;65.30
40758;DHT22;26462;47.384;19.218;2023-04-19T08:09:51;14.80;64.80
40758;DHT22;26462;47.384;19.218;2023-04-19T08:12:19;14.80;64.40
40758;DHT22;26462;47.384;19.218;2023-04-19T08:14:52;14.90;64.30
40758;DHT22;26462;47.384;19.218;2023-04-19T08:17:37;14.90;64.60
40758;DHT22;26462;47.384;19.218;2023-04-19T08:20:09;15.30;65.10
40758;DHT22;26462;47.384;19.218;2023-04-19T08:22:37;15.80;64.70
40758;DHT22;26462;47.384;19.218;2023-04-19T08:25:06;15.70;63.70
40758;DHT22;26462;47.384;19.218;2023-04-19T08:27:34;16.40;63.60
40758;DHT22;26462;47.384;19.218;2023-04-19T08:30:01;17.10;63.80
40758;DHT22;26462;47.384;19.218;2023-04-19T08:32:29;17.50;60.40
40758;DHT22;26462;47.384;19.218;2023-04-19T08:34:56;17.60;61.60
40758;DHT22;26462;47.384;19.218;2023-04-19T08:37:23;17.50;62.10
40758;DHT22;26462;47.384;19.218;2023-04-19T08:39:51;17.70;61.30
40758;DHT22;26462;47.384;19.218;2023-04-19T08:42:18;18.00;60.60
40758;DHT22;26462;47.384;19.218;2023-04-19T08:45:03;17.80;58.30
40758;DHT22;26462;47.384;19.218;2023-04-19T08:47:38;17.40;59.00
40758;DHT22;26462;47.384;19.218;2023-04-19T08:50:08;17.60;58.60
40758;DHT22;26462;47.384;19.218;2023-04-19T08:52:55;17.90;55.30
40758;DHT22;26462;47.384;19.218;2023-04-19T08:55:42;18.00;54.10
40758;DHT22;26462;47.384;19.218;2023-04-19T08:58:31;17.90;54.40
40758;DHT22;26462;47.384;19.218;2023-04-19T09:01:06;17.30;53.30
40758;DHT22;26462;47.384;19.218;2023-04-19T09:03:43;17.20;54.60
40758;DHT22;26462;47.384;19.218;2023-04-19T09:06:39;17.10;54.80
40758;DHT22;26462;47.384;19.218;2023-04-19T09:09:24;16.90;53.20
40758;DHT22;26462;47.384;19.218;2023-04-19T09:11:54;16.90;54.10
40758;DHT22;26462;47.384;19.218;2023-04-19T09:14:25;17.10;56.30
40758;DHT22;26462;47.384;19.218;2023-04-19T09:16:52;17.20;56.50
40758;DHT22;26462;47.384;19.218;2023-04-19T09:19:20;17.60;58.30
40758;DHT22;26462;47.384;19.218;2023-04-19T09:21:51;18.10;59.10
40758;DHT22;26462;47.384;19.218;2023-04-19T09:24:39;18.10;57.20
40758;DHT22;26462;47.384;19.218;2023-04-19T09:27:09;17.50;58.00
40758;DHT22;26462;47.384;19.218;2023-04-19T09:29:38;17.40;58.60
40758;DHT22;26462;47.384;19.218;2023-04-19T09:32:05;17.10;58.00
40758;DHT22;26462;47.384;19.218;2023-04-19T09:34:32;16.90;59.10
40758;DHT22;26462;47.384;19.218;2023-04-19T09:37:12;16.90;58.60
40758;DHT22;26462;47.384;19.218;2023-04-19T09:39:58;16.90;59.40
40758;DHT22;26462;47.384;19.218;2023-04-19T09:42:45;17.10;59.50
40758;DHT22;26462;47.384;19.218;2023-04-19T09:45:16;17.10;59.10
40758;DHT22;26462;47.384;19.218;2023-04-19T09:48:08;17.20;58.70
40758;DHT22;26462;47.384;19.218;2023-04-19T09:50:49;17.10;59.20
40758;DHT22;26462;47.384;19.218;2023-04-19T09:53:28;17.10;59.50
40758;DHT22;26462;47.384;19.218;2023-04-19T09:55:55;17.60;60.50
40758;DHT22;26462;47.384;19.218;2023-04-19T09:58:28;17.60;60.40
40758;DHT22;26462;47.384;19.218;2023-04-19T10:01:12;17.50;59.20
40758;DHT22;26462;47.384;19.218;2023-04-19T10:03:48;17.40;60.00
40758;DHT22;26462;47.384;19.218;2023-04-19T10:06:17;17.50;61.50
40758;DHT22;26462;47.384;19.218;2023-04-19T10:08:49;17.50;62.20
40758;DHT22;26462;47.384;19.218;2023-04-19T10:11:19;17.60;62.30
40758;DHT22;26462;47.384;19.218;2023-04-19T10:13:48;17.80;62.40
40758;DHT22;26462;47.384;19.218;2023-04-19T10:16:19;18.20;61.40
40758;DHT22;26462;47.384;19.218;2023-04-19T10:18:48;18.80;64.70
40758;DHT22;26462;47.384;19.218;2023-04-19T10:21:17;19.10;62.20
40758;DHT22;26462;47.384;19.218;2023-04-19T10:23:45;19.40;60.40
40758;DHT22;26462;47.384;19.218;2023-04-19T10:26:12;19.40;59.30
40758;DHT22;26462;47.384;19.218;2023-04-19T10:28:41;19.40;57.50
40758;DHT22;26462;47.384;19.218;2023-04-19T10:31:11;19.70;57.10
40758;DHT22;26462;47.384;19.218;2023-04-19T10:33:39;19.70;56.90
40758;DHT22;26462;47.384;19.218;2023-04-19T10:36:13;19.90;57.10
40758;DHT22;26462;47.384;19.218;2023-04-19T10:38:42;19.50;56.70
40758;DHT22;26462;47.384;19.218;2023-04-19T10:41:10;19.20;55.40
40758;DHT22;26462;47.384;19.218;2023-04-19T10:48:59;18.60;55.50
40758;DHT22;26462;47.384;19.218;2023-04-19T10:51:36;18.30;54.00
40758;DHT22;26462;47.384;19.218;2023-04-19T10:54:29;18.30;56.30
40758;DHT22;26462;47.384;19.218;2023-04-19T10:57:03;18.20;57.00
40758;DHT22;26462;47.384;19.218;2023-04-19T10:59:38;18.30;55.60
40758;DHT22;26462;47.384;19.218;2023-04-19T11:07:18;18.00;55.80
40758;DHT22;26462;47.384;19.218;2023-04-19T11:09:47;18.00;58.40
40758;DHT22;26462;47.384;19.218;2023-04-19T11:12:20;18.10;57.00
40758;DHT22;26462;47.384;19.218;2023-04-19T11:14:56;18.00;57.10
40758;DHT22;26462;47.384;19.218;2023-04-19T11:17:30;18.20;58.70
40758;DHT22;26462;47.384;19.218;2023-04-19T11:22:34;18.30;57.40
40758;DHT22;26462;47.384;19.218;2023-04-19T11:27:35;18.60;58.90
40758;DHT22;26462;47.384;19.218;2023-04-19T11:30:07;19.40;58.70
40758;DHT22;26462;47.384;19.218;2023-04-19T11:32:35;19.80;57.60
40758;DHT22;26462;47.384;19.218;2023-04-19T11:35:06;19.40;55.90
40758;DHT22;26462;47.384;19.218;2023-04-19T11:37:35;19.10;55.10
40758;DHT22;26462;47.384;19.218;2023-04-19T11:40:04;19.30;55.10
40758;DHT22;26462;47.384;19.218;2023-04-19T11:42:32;19.30;55.80
40758;DHT22;26462;47.384;19.218;2023-04-19T11:45:00;19.30;56.50
40758;DHT22;26462;47.384;19.218;2023-04-19T11:47:27;19.30;60.90
40758;DHT22;26462;47.384;19.218;2023-04-19T11:49:54;19.00;62.60
40758;DHT22;26462;47.384;19.218;2023-04-19T11:52:25;19.10;61.70
40758;DHT22;26462;47.384;19.218;2023-04-19T11:54:52;19.20;61.80
40758;DHT22;26462;47.384;19.218;2023-04-19T11:57:29;18.90;62.00
40758;DHT22;26462;47.384;19.218;2023-04-19T12:00:07;18.30;63.10
40758;DHT22;26462;47.384;19.218;2023-04-19T12:02:39;18.00;65.10
40758;DHT22;26462;47.384;19.218;2023-04-19T12:05:08;17.90;65.30
40758;DHT22;26462;47.384;19.218;2023-04-19T12:07:36;17.90;65.10
40758;DHT22;26462;47.384;19.218;2023-04-19T12:10:12;17.80;65.50
40758;DHT22;26462;47.384;19.218;2023-04-19T12:12:39;17.80;64.90
40758;DHT22;26462;47.384;19.218;2023-04-19T12:15:07;18.50;64.30
40758;DHT22;26462;47.384;19.218;2023-04-19T12:17:58;18.70;63.30
40758;DHT22;26462;47.384;19.218;2023-04-19T12:20:36;18.50;62.60
40758;DHT22;26462;47.384;19.218;2023-04-19T12:23:03;18.40;64.50
40758;DHT22;26462;47.384;19.218;2023-04-19T12:25:32;18.70;64.40
40758;DHT22;26462;47.384;19.218;2023-04-19T12:28:01;18.90;62.20
40758;DHT22;26462;47.384;19.218;2023-04-19T12:30:29;19.10;65.30
40758;DHT22;26462;47.384;19.218;2023-04-19T12:32:57;18.60;66.20
40758;DHT22;26462;47.384;19.218;2023-04-19T12:35:25;18.50;65.90
40758;DHT22;26462;47.384;19.218;2023-04-19T12:37:57;18.70;67.70
40758;DHT22;26462;47.384;19.218;2023-04-19T12:40:25;18.50;65.90
40758;DHT22;26462;47.384;19.218;2023-04-19T12:42:53;18.30;66.50
40758;DHT22;26462;47.384;19.218;2023-04-19T12:45:20;18.10;66.90
40758;DHT22;26462;47.384;19.218;2023-04-19T12:47:47;17.80;67.10
40758;DHT22;26462;47.384;19.218;2023-04-19T12:50:15;18.10;68.40
40758;DHT22;26462;47.384;19.218;2023-04-19T12:52:43;18.30;68.70
40758;DHT22;26462;47.384;19.218;2023-04-19T12:55:10;18.30;68.40
40758;DHT22;26462;47.384;19.218;2023-04-19T12:57:37;18.40;69.10
40758;DHT22;26462;47.384;19.218;2023-04-19T13:00:05;18.30;68.60
40758;DHT22;26462;47.384;19.218;2023-04-19T13:02:33;18.50;68.70
40758;DHT22;26462;47.384;19.218;2023-04-19T13:05:02;18.70;68.40
40758;DHT22;26462;47.384;19.218;2023-04-19T13:07:31;18.80;68.80
40758;DHT22;26462;47.384;19.218;2023-04-19T13:09:58;18.90;68.00
40758;DHT22;26462;47.384;19.218;2023-04-19T13:12:25;19.20;67.40
40758;DHT22;26462;47.384;19.218;2023-04-19T13:14:52;19.40;65.60
40758;DHT22;26462;47.384;19.218;2023-04-19T13:17:19;19.40;66.90
40758;DHT22;26462;47.384;19.218;2023-04-19T13:19:47;19.40;66.30
40758;DHT22;26462;47.384;19.218;2023-04-19T13:22:14;19.00;66.00
40758;DHT22;26462;47.384;19.218;2023-04-19T13:24:41;18.80;66.50
40758;DHT22;26462;47.384;19.218;2023-04-19T13:27:08;18.70;65.40
40758;DHT22;26462;47.384;19.218;2023-04-19T13:29:36;18.70;66.70
40758;DHT22;26462;47.384;19.218;2023-04-19T13:32:03;18.80;66.20
40758;DHT22;26462;47.384;19.218;2023-04-19T13:34:34;18.70;65.90
40758;DHT22;26462;47.384;19.218;2023-04-19T13:37:01;18.70;66.30
40758;DHT22;26462;47.384;19.218;2023-04-19T13:39:28;18.70;65.30
40758;DHT22;26462;47.384;19.218;2023-04-19T13:41:55;18.80;65.00
40758;DHT22;26462;47.384;19.218;2023-04-19T13:44:22;18.70;64.10
40758;DHT22;26462;47.384;19.218;2023-04-19T13:46:51;18.70;64.90
40758;DHT22;26462;47.384;19.218;2023-04-19T13:49:18;18.80;64.00
40758;DHT22;26462;47.384;19.218;2023-04-19T13:51:45;18.70;64.30
40758;DHT22;26462;47.384;19.218;2023-04-19T13:54:17;18.40;64.50
40758;DHT22;26462;47.384;19.218;2023-04-19T13:56:46;18.50;65.80
40758;DHT22;26462;47.384;19.218;2023-04-19T13:59:17;18.60;66.10
40758;DHT22;26462;47.384;19.218;2023-04-19T14:01:44;19.00;64.60
40758;DHT22;26462;47.384;19.218;2023-04-19T14:04:11;19.00;62.20
40758;DHT22;26462;47.384;19.218;2023-04-19T14:06:38;18.90;61.50
40758;DHT22;26462;47.384;19.218;2023-04-19T14:09:06;18.60;60.50
40758;DHT22;26462;47.384;19.218;2023-04-19T14:11:33;18.80;61.70
40758;DHT22;26462;47.384;19.218;2023-04-19T14:14:06;19.10;61.50
40758;DHT22;26462;47.384;19.218;2023-04-19T14:16:33;19.30;62.70
40758;DHT22;26462;47.384;19.218;2023-04-19T14:19:00;19.40;61.80
40758;DHT22;26462;47.384;19.218;2023-04-19T14:21:28;19.60;61.30
40758;DHT22;26462;47.384;19.218;2023-04-19T14:23:55;19.50;61.00
40758;DHT22;26462;47.384;19.218;2023-04-19T14:26:23;19.20;60.30
40758;DHT22;26462;47.384;19.218;2023-04-19T14:28:53;18.60;61.50
40758;DHT22;26462;47.384;19.218;2023-04-19T14:31:20;18.80;62.40
40758;DHT22;26462;47.384;19.218;2023-04-19T14:33:47;18.40;66.30
40758;DHT22;26462;47.384;19.218;2023-04-19T14:36:14;18.40;68.60
40758;DHT22;26462;47.384;19.218;2023-04-19T14:38:41;18.20;69.90
40758;DHT22;26462;47.384;19.218;2023-04-19T14:41:08;18.10;71.30
40758;DHT22;26462;47.384;19.218;2023-04-19T14:43:35;18.00;70.50
40758;DHT22;26462;47.384;19.218;2023-04-19T14:46:02;18.20;72.70
40758;DHT22;26462;47.384;19.218;2023-04-19T14:48:29;17.90;73.90
40758;DHT22;26462;47.384;19.218;2023-04-19T14:50:57;17.80;73.50
40758;DHT22;26462;47.384;19.218;2023-04-19T14:53:24;17.50;73.20
40758;DHT22;26462;47.384;19.218;2023-04-19T14:55:51;17.30;74.10
40758;DHT22;26462;47.384;19.218;2023-04-19T14:58:18;17.40;74.60
40758;DHT22;26462;47.384;19.218;2023-04-19T15:00:45;17.30;74.90
40758;DHT22;26462;47.384;19.218;2023-04-19T15:03:12;17.20;74.90
40758;DHT22;26462;47.384;19.218;2023-04-19T15:05:39;17.00;76.30
40758;DHT22;26462;47.384;19.218;2023-04-19T15:08:06;16.70;77.10
40758;DHT22;26462;47.384;19.218;2023-04-19T15:10:52;16.50;77.00
40758;DHT22;26462;47.384;19.218;2023-04-19T15:13:19;16.40;78.70
40758;DHT22;26462;47.384;19.218;2023-04-19T15:15:46;16.40;79.20
40758;DHT22;26462;47.384;19.218;2023-04-19T15:18:14;16.40;79.10
40758;DHT22;26462;47.384;19.218;2023-04-19T15:20:41;16.30;78.90
40758;DHT22;26462;47.384;19.218;2023-04-19T15:23:08;16.20;80.60
40758;DHT22;26462;47.384;19.218;2023-04-19T15:25:35;16.20;81.10
40758;DHT22;26462;47.384;19.218;2023-04-19T15:28:03;16.30;80.70
40758;DHT22;26462;47.384;19.218;2023-04-19T15:30:30;16.10;80.50
40758;DHT22;26462;47.384;19.218;2023-04-19T15:32:57;16.00;81.80
40758;DHT22;26462;47.384;19.218;2023-04-19T15:35:24;15.90;82.50
40758;DHT22;26462;47.384;19.218;2023-04-19T15:37:51;16.00;83.40
40758;DHT22;26462;47.384;19.218;2023-04-19T15:40:18;15.70;83.50
40758;DHT22;26462;47.384;19.218;2023-04-19T15:42:45;15.60;82.40
40758;DHT22;26462;47.384;19.218;2023-04-19T15:45:12;15.60;81.90